createdAt,value
2018-08-06T00:02:57.956Z,19.10
2018-08-06T00:05:26.143Z,19.10
2018-08-06T00:07:54.290Z,19.10
2018-08-06T00:12:51.685Z,19.00
2018-08-06T00:15:19.980Z,19.00
2018-08-06T00:17:48.133Z,18.90
2018-08-06T00:20:16.613Z,19.00
2018-08-06T00:22:44.880Z,19.00
2018-08-06T00:27:43.382Z,19.10
2018-08-06T00:32:42.193Z,19.20
2018-08-06T00:35:11.005Z,19.10
2018-08-06T00:37:39.472Z,19.10
2018-08-06T00:40:11.733Z,19.10
2018-08-06T00:42:40.225Z,19.00
2018-08-06T00:45:11.248Z,19.00
2018-08-06T00:47:39.412Z,19.00
2018-08-06T00:50:08.133Z,19.00
2018-08-06T00:52:36.596Z,19.00
2018-08-06T00:55:05.465Z,18.90
2018-08-06T00:57:33.616Z,18.90
2018-08-06T01:00:01.761Z,18.90
2018-08-06T01:02:29.912Z,18.90
2018-08-06T01:07:25.982Z,18.90
2018-08-06T01:09:54.144Z,18.90
2018-08-06T01:12:22.286Z,18.80
2018-08-06T01:14:50.441Z,18.80
2018-08-06T01:17:18.597Z,18.70
2018-08-06T01:19:46.752Z,18.70
2018-08-06T01:22:14.929Z,18.60
2018-08-06T01:24:43.124Z,18.60
2018-08-06T01:27:11.408Z,18.60
2018-08-06T01:29:39.734Z,18.70
2018-08-06T01:34:36.324Z,18.60
2018-08-06T01:37:04.469Z,18.60
2018-08-06T01:42:00.549Z,18.60
2018-08-06T01:44:28.701Z,18.60
2018-08-06T01:46:56.875Z,18.60
2018-08-06T01:49:25.036Z,18.50
2018-08-06T01:51:53.179Z,18.40
2018-08-06T01:54:21.361Z,18.40
2018-08-06T01:56:49.589Z,18.30
2018-08-06T01:59:17.740Z,18.30
2018-08-06T02:01:45.904Z,18.30
2018-08-06T02:04:14.045Z,18.30
2018-08-06T02:06:42.213Z,18.30
2018-08-06T02:09:10.380Z,18.30
2018-08-06T02:11:38.549Z,18.20
2018-08-06T02:14:06.701Z,18.20
2018-08-06T02:16:34.870Z,18.10
2018-08-06T02:19:03.020Z,18.10
2018-08-06T02:21:31.174Z,18.10
2018-08-06T02:23:59.332Z,18.10
2018-08-06T02:26:27.554Z,18.00
2018-08-06T02:31:23.637Z,18.00
2018-08-06T02:33:51.798Z,18.00
2018-08-06T02:36:19.937Z,17.90
2018-08-06T02:38:48.128Z,17.90
2018-08-06T02:43:44.214Z,17.90
2018-08-06T02:46:12.374Z,17.80
2018-08-06T02:48:40.537Z,17.80
2018-08-06T02:51:08.696Z,17.70
2018-08-06T02:56:04.773Z,17.70
2018-08-06T02:58:32.928Z,17.60
2018-08-06T03:01:01.093Z,17.60
2018-08-06T03:05:57.165Z,17.60
2018-08-06T03:08:25.313Z,17.50
2018-08-06T03:10:53.476Z,17.50
2018-08-06T03:15:49.553Z,17.40
2018-08-06T03:18:17.705Z,17.30
2018-08-06T03:20:45.852Z,17.20
2018-08-06T03:23:14.021Z,17.20
2018-08-06T03:25:42.180Z,17.20
2018-08-06T03:28:10.336Z,17.20
2018-08-06T03:30:38.490Z,17.20
2018-08-06T03:33:06.977Z,17.10
2018-08-06T03:35:35.128Z,17.00
2018-08-06T03:40:31.245Z,17.00
2018-08-06T03:42:59.471Z,17.00
2018-08-06T03:45:27.609Z,17.00
2018-08-06T03:47:55.760Z,17.10
2018-08-06T03:50:23.957Z,17.10
2018-08-06T03:55:20.141Z,17.10
2018-08-06T03:57:48.278Z,17.10
2018-08-06T04:00:16.695Z,17.10
2018-08-06T04:02:45.049Z,17.10
2018-08-06T04:07:42.449Z,17.00
2018-08-06T04:10:13.668Z,16.90
2018-08-06T04:15:10.637Z,16.90
2018-08-06T04:17:39.039Z,16.90
2018-08-06T04:20:08.216Z,16.90
2018-08-06T04:25:04.347Z,16.90
2018-08-06T04:30:00.529Z,17.00
2018-08-06T04:32:28.693Z,17.00
2018-08-06T04:34:56.981Z,17.00
2018-08-06T04:37:25.225Z,17.10
2018-08-06T04:42:21.329Z,17.20
2018-08-06T04:44:49.484Z,17.30
2018-08-06T04:47:17.681Z,17.40
2018-08-06T04:49:45.833Z,17.50
2018-08-06T04:52:14.084Z,17.50
2018-08-06T04:57:10.171Z,17.80
2018-08-06T04:59:38.365Z,17.90
2018-08-06T05:02:06.573Z,17.90
2018-08-06T05:04:34.729Z,18.00
2018-08-06T05:07:03.019Z,18.10
2018-08-06T05:12:04.789Z,18.10
2018-08-06T05:14:32.945Z,18.20
2018-08-06T05:17:01.083Z,18.30
2018-08-06T05:19:29.274Z,18.30
2018-08-06T05:21:57.526Z,18.40
2018-08-06T05:24:25.681Z,18.60
2018-08-06T05:26:53.824Z,18.80
2018-08-06T05:29:21.976Z,18.90
2018-08-06T05:31:50.130Z,19.10
2018-08-06T05:34:18.280Z,19.20
2018-08-06T05:36:46.575Z,19.50
2018-08-06T05:39:14.765Z,20.00
2018-08-06T05:41:43.028Z,20.80
2018-08-06T05:44:11.205Z,21.40
2018-08-06T05:46:39.340Z,21.50
2018-08-06T05:51:35.488Z,21.70
2018-08-06T05:54:03.763Z,21.80
2018-08-06T05:58:59.908Z,21.70
2018-08-06T06:03:56.032Z,21.60
2018-08-06T06:06:24.221Z,21.60
2018-08-06T06:08:52.376Z,21.60
2018-08-06T06:11:20.622Z,21.80
2018-08-06T06:13:48.857Z,21.90
2018-08-06T06:16:17.036Z,22.10
2018-08-06T06:21:13.108Z,22.40
2018-08-06T06:23:41.279Z,22.60
2018-08-06T06:26:09.429Z,22.80
2018-08-06T06:31:05.533Z,22.90
2018-08-06T06:33:33.668Z,23.10
2018-08-06T06:36:01.841Z,23.00
2018-08-06T06:38:29.988Z,23.00
2018-08-06T06:43:26.961Z,22.90
2018-08-06T06:48:23.037Z,22.70
2018-08-06T06:50:51.225Z,22.80
2018-08-06T06:53:19.394Z,22.70
2018-08-06T06:55:47.540Z,22.80
2018-08-06T06:58:15.687Z,23.00
2018-08-06T07:00:43.874Z,23.00
2018-08-06T07:05:40.051Z,23.20
2018-08-06T07:08:08.440Z,23.40
2018-08-06T07:10:36.605Z,23.60
2018-08-06T07:13:04.822Z,23.80
2018-08-06T07:15:32.987Z,23.90
2018-08-06T07:18:01.566Z,24.00
2018-08-06T07:20:29.881Z,24.10
2018-08-06T07:25:26.155Z,24.20
2018-08-06T07:27:54.273Z,24.20
2018-08-06T07:30:22.432Z,24.30
2018-08-06T07:32:50.589Z,24.10
2018-08-06T07:36:42.968Z,24.20
2018-08-06T07:39:11.915Z,24.20
2018-08-06T07:41:40.117Z,24.40
2018-08-06T07:44:08.578Z,24.60
2018-08-06T07:46:37.330Z,24.80
2018-08-06T07:49:05.776Z,25.00
2018-08-06T07:51:33.997Z,25.10
2018-08-06T07:56:30.230Z,25.30
2018-08-06T07:58:58.385Z,25.40
2018-08-06T08:01:26.532Z,25.40
2018-08-06T08:03:54.745Z,25.50
2018-08-06T08:06:22.904Z,25.50
2018-08-06T08:08:51.044Z,25.60
2018-08-06T08:11:19.200Z,25.60
2018-08-06T08:13:47.353Z,25.60
2018-08-06T08:16:15.505Z,25.70
2018-08-06T08:18:43.681Z,26.00
2018-08-06T08:21:11.816Z,26.20
2018-08-06T08:23:39.968Z,26.30
2018-08-06T08:28:36.041Z,26.50
2018-08-06T08:31:04.185Z,26.60
2018-08-06T08:33:32.353Z,26.60
2018-08-06T08:36:00.493Z,26.60
2018-08-06T08:38:28.333Z,26.70
2018-08-06T08:40:56.481Z,26.90
2018-08-06T08:45:52.548Z,27.10
2018-08-06T08:48:20.708Z,27.10
2018-08-06T08:50:48.852Z,27.00
2018-08-06T08:53:17.044Z,27.00
2018-08-06T08:58:13.204Z,27.20
2018-08-06T09:00:41.349Z,27.30
2018-08-06T09:03:09.529Z,27.40
2018-08-06T09:05:37.670Z,27.50
2018-08-06T09:08:05.849Z,27.60
2018-08-06T09:10:33.994Z,27.70
2018-08-06T09:13:02.153Z,27.80
2018-08-06T09:15:30.296Z,27.90
2018-08-06T09:17:58.456Z,28.00
2018-08-06T09:20:26.821Z,28.00
2018-08-06T09:22:54.972Z,28.10
2018-08-06T09:25:23.120Z,28.20
2018-08-06T09:30:20.996Z,28.20
2018-08-06T09:32:52.667Z,28.30
2018-08-06T09:35:21.236Z,28.40
2018-08-06T09:40:18.539Z,28.70
2018-08-06T09:42:47.416Z,28.70
2018-08-06T09:45:16.705Z,28.60
2018-08-06T09:50:14.589Z,28.80
2018-08-06T09:52:43.595Z,28.90
2018-08-06T09:57:41.124Z,29.00
2018-08-06T10:00:19.321Z,29.10
2018-08-06T10:02:48.580Z,29.10
2018-08-06T10:05:16.985Z,29.00
2018-08-06T10:10:14.112Z,29.20
2018-08-06T10:12:43.149Z,29.20
2018-08-06T10:15:12.418Z,29.30
2018-08-06T10:20:12.041Z,29.50
2018-08-06T10:22:40.236Z,29.60
2018-08-06T10:25:10.446Z,29.80
2018-08-06T10:30:10.697Z,29.80
2018-08-06T10:32:38.832Z,29.70
2018-08-06T10:35:08.056Z,29.50
2018-08-06T10:37:37.060Z,29.60
2018-08-06T10:42:34.813Z,29.80
2018-08-06T10:45:02.956Z,29.90
2018-08-06T10:47:31.105Z,30.00
2018-08-06T10:49:59.249Z,30.20
2018-08-06T10:52:27.464Z,30.40
2018-08-06T10:54:55.629Z,30.40
2018-08-06T10:57:23.777Z,30.40
2018-08-06T11:02:19.832Z,30.20
2018-08-06T11:04:47.980Z,30.20
2018-08-06T11:07:16.309Z,30.30
2018-08-06T11:09:44.440Z,30.50
2018-08-06T11:12:12.737Z,30.70
2018-08-06T11:17:08.786Z,30.80
2018-08-06T11:19:36.916Z,30.80
2018-08-06T11:22:05.061Z,30.70
2018-08-06T11:24:33.192Z,30.70
2018-08-06T11:29:29.247Z,30.70
2018-08-06T11:31:57.409Z,30.80
2018-08-06T11:36:53.504Z,31.20
2018-08-06T11:39:21.620Z,31.10
2018-08-06T11:44:17.703Z,30.90
2018-08-06T11:46:45.877Z,31.10
2018-08-06T11:49:14.009Z,31.30
2018-08-06T11:51:42.228Z,31.20
2018-08-06T11:54:10.358Z,31.10
2018-08-06T11:56:38.591Z,31.10
2018-08-06T11:59:06.652Z,31.20
2018-08-06T12:01:34.792Z,31.20
2018-08-06T12:06:30.869Z,31.20
2018-08-06T12:08:59.004Z,31.20
2018-08-06T12:13:55.057Z,31.20
2018-08-06T12:16:23.260Z,31.30
2018-08-06T12:18:51.540Z,31.60
2018-08-06T12:21:19.684Z,31.50
2018-08-06T12:26:15.933Z,31.70
2018-08-06T12:28:43.896Z,31.90
2018-08-06T12:33:40.000Z,31.80
2018-08-06T12:36:08.117Z,31.70
2018-08-06T12:41:14.732Z,32.00
2018-08-06T12:43:42.870Z,31.90
2018-08-06T12:46:11.023Z,31.90
2018-08-06T12:48:39.165Z,31.90
2018-08-06T12:51:07.340Z,32.00
2018-08-06T12:53:35.481Z,31.90
2018-08-06T12:58:31.579Z,31.70
2018-08-06T13:00:59.708Z,31.80
2018-08-06T13:03:28.385Z,31.70
2018-08-06T13:05:56.589Z,31.60
2018-08-06T13:08:24.728Z,31.70
2018-08-06T13:13:20.797Z,31.70
2018-08-06T13:15:48.936Z,31.80
2018-08-06T13:18:17.079Z,31.70
2018-08-06T13:20:45.208Z,31.70
2018-08-06T13:23:13.408Z,31.50
2018-08-06T13:25:41.551Z,31.30
2018-08-06T13:30:43.116Z,31.30
2018-08-06T13:35:39.296Z,31.10
2018-08-06T13:38:07.432Z,31.40
2018-08-06T13:43:03.564Z,31.30
2018-08-06T13:45:31.800Z,31.30
2018-08-06T13:47:59.968Z,31.40
2018-08-06T13:50:28.097Z,31.40
2018-08-06T13:52:56.279Z,31.50
2018-08-06T13:55:24.411Z,31.50
2018-08-06T13:57:52.564Z,31.40
2018-08-06T14:00:20.705Z,31.30
2018-08-06T14:05:17.682Z,31.20
2018-08-06T14:10:15.045Z,31.20
2018-08-06T14:15:11.913Z,31.10
2018-08-06T14:20:10.157Z,31.20
2018-08-06T14:22:38.689Z,31.10
2018-08-06T14:27:35.647Z,31.10
2018-08-06T14:32:32.705Z,31.20
2018-08-06T14:35:00.920Z,31.30
2018-08-06T14:37:29.095Z,31.10
2018-08-06T14:39:57.228Z,31.10
2018-08-06T14:42:25.446Z,31.20
2018-08-06T14:44:53.589Z,31.20
2018-08-06T14:49:49.666Z,31.20
2018-08-06T14:52:17.808Z,31.20
2018-08-06T14:57:13.884Z,31.00
2018-08-06T14:59:42.057Z,30.90
2018-08-06T15:02:10.197Z,30.90
2018-08-06T15:07:06.375Z,30.90
2018-08-06T15:09:34.517Z,30.90
2018-08-06T15:14:30.584Z,30.80
2018-08-06T15:16:58.748Z,30.80
2018-08-06T15:19:26.872Z,30.90
2018-08-06T15:21:55.121Z,30.80
2018-08-06T15:24:23.264Z,30.70
2018-08-06T15:26:51.413Z,30.70
2018-08-06T15:29:19.643Z,30.70
2018-08-06T15:31:47.806Z,30.70
2018-08-06T15:34:15.949Z,30.70
2018-08-06T15:36:44.076Z,30.60
2018-08-06T15:39:14.597Z,30.50
2018-08-06T15:41:43.656Z,30.40
2018-08-06T15:46:39.850Z,30.30
2018-08-06T15:51:35.870Z,30.30
2018-08-06T15:54:04.000Z,30.20
2018-08-06T15:56:32.230Z,30.20
2018-08-06T15:59:00.371Z,30.10
2018-08-06T16:03:57.272Z,30.10
2018-08-06T16:06:25.380Z,30.10
2018-08-06T16:08:53.524Z,30.10
2018-08-06T16:11:21.688Z,30.10
2018-08-06T16:13:49.821Z,30.00
2018-08-06T16:18:45.899Z,30.00
2018-08-06T16:21:14.049Z,30.00
2018-08-06T16:23:42.189Z,30.00
2018-08-06T16:26:10.333Z,29.90
2018-08-06T16:28:38.477Z,29.80
2018-08-06T16:33:34.528Z,29.80
2018-08-06T16:36:02.673Z,29.80
2018-08-06T16:38:30.814Z,29.80
2018-08-06T16:40:58.962Z,29.70
2018-08-06T16:43:27.109Z,29.70
2018-08-06T16:48:23.288Z,29.70
2018-08-06T16:50:51.433Z,29.60
2018-08-06T16:55:47.488Z,29.70
2018-08-06T16:58:15.645Z,29.60
2018-08-06T17:00:43.784Z,29.40
2018-08-06T17:03:11.948Z,29.40
2018-08-06T17:05:40.114Z,29.30
2018-08-06T17:08:08.252Z,29.30
2018-08-06T17:10:36.413Z,29.30
2018-08-06T17:15:32.468Z,29.30
2018-08-06T17:22:56.610Z,29.30
2018-08-06T17:25:24.749Z,29.20
2018-08-06T17:30:20.827Z,29.20
2018-08-06T17:32:48.960Z,29.10
2018-08-06T17:35:17.351Z,29.20
2018-08-06T17:40:15.546Z,29.10
2018-08-06T17:45:15.164Z,28.90
2018-08-06T17:50:13.588Z,28.70
2018-08-06T17:55:10.030Z,28.60
2018-08-06T18:00:06.665Z,28.40
2018-08-06T18:02:34.985Z,28.30
2018-08-06T18:07:31.245Z,28.10
2018-08-06T18:09:59.397Z,28.00
2018-08-06T18:12:27.544Z,28.00
2018-08-06T18:17:24.133Z,27.80
2018-08-06T18:19:52.287Z,27.70
2018-08-06T18:24:48.424Z,27.50
2018-08-06T18:29:44.569Z,27.30
2018-08-06T18:34:40.624Z,27.00
2018-08-06T18:39:36.692Z,26.90
2018-08-06T18:42:04.851Z,26.80
2018-08-06T18:44:32.997Z,26.70
2018-08-06T18:47:01.137Z,26.60
2018-08-06T18:49:29.297Z,26.50
2018-08-06T18:51:57.500Z,26.40
2018-08-06T18:54:25.605Z,26.30
2018-08-06T18:56:53.749Z,26.20
2018-08-06T18:59:21.888Z,26.10
2018-08-06T19:01:50.050Z,26.00
2018-08-06T19:04:18.205Z,26.00
2018-08-06T19:09:18.378Z,25.80
2018-08-06T19:11:47.126Z,25.70
2018-08-06T19:16:50.372Z,25.50
2018-08-06T19:19:24.561Z,25.50
2018-08-06T19:24:27.576Z,25.30
2018-08-06T19:26:56.653Z,25.20
2018-08-06T19:31:53.249Z,25.10
2018-08-06T19:34:21.624Z,25.00
2018-08-06T19:36:55.341Z,25.00
2018-08-06T19:39:23.612Z,24.90
2018-08-06T19:41:51.961Z,24.90
2018-08-06T19:44:20.121Z,24.80
2018-08-06T19:46:48.338Z,24.70
2018-08-06T19:49:22.029Z,24.70
2018-08-06T19:51:50.169Z,24.70
2018-08-06T19:54:18.325Z,24.60
2018-08-06T19:56:46.464Z,24.60
2018-08-06T19:59:14.753Z,24.50
2018-08-06T20:01:42.896Z,24.40
2018-08-06T20:04:11.067Z,24.30
2018-08-06T20:09:09.461Z,24.20
2018-08-06T20:11:37.837Z,24.10
2018-08-06T20:16:33.909Z,23.90
2018-08-06T20:19:02.061Z,23.80
2018-08-06T20:21:30.200Z,23.80
2018-08-06T20:23:58.383Z,23.80
2018-08-06T20:26:26.565Z,23.80
2018-08-06T20:28:54.710Z,23.80
2018-08-06T20:31:22.848Z,23.80
2018-08-06T20:33:50.998Z,23.70
2018-08-06T20:38:47.061Z,23.70
2018-08-06T20:41:15.260Z,23.70
2018-08-06T20:43:43.412Z,23.70
2018-08-06T20:46:11.574Z,23.70
2018-08-06T20:51:07.944Z,23.40
2018-08-06T20:53:36.149Z,23.30
2018-08-06T20:56:04.401Z,23.20
2018-08-06T20:58:32.557Z,23.20
2018-08-06T21:01:00.721Z,23.20
2018-08-06T21:05:56.853Z,23.10
2018-08-06T21:08:25.005Z,23.10
2018-08-06T21:10:53.162Z,23.10
2018-08-06T21:13:21.309Z,23.00
2018-08-06T21:15:49.569Z,23.10
2018-08-06T21:20:45.642Z,23.10
2018-08-06T21:23:13.801Z,23.10
2018-08-06T21:25:41.961Z,23.10
2018-08-06T21:30:38.052Z,23.10
2018-08-06T21:33:06.197Z,23.00
2018-08-06T21:35:35.006Z,23.00
2018-08-06T21:38:03.144Z,23.00
2018-08-06T21:43:00.252Z,22.90
2018-08-06T21:45:28.413Z,22.90
2018-08-06T21:47:56.560Z,22.90
2018-08-06T21:52:52.633Z,22.90
2018-08-06T21:55:21.646Z,22.90
2018-08-06T21:57:49.798Z,23.00
2018-08-06T22:00:31.365Z,23.00
2018-08-06T22:02:59.524Z,23.10
2018-08-06T22:07:56.041Z,23.10
2018-08-06T22:10:24.199Z,23.20
2018-08-06T22:12:52.437Z,23.20
2018-08-06T22:17:48.613Z,23.10
2018-08-06T22:20:17.006Z,23.10
2018-08-06T22:22:45.269Z,23.10
2018-08-06T22:25:13.414Z,23.10
2018-08-06T22:30:10.380Z,23.00
2018-08-06T22:35:08.112Z,23.00
2018-08-06T22:37:36.283Z,22.90
2018-08-06T22:40:05.730Z,22.90
2018-08-06T22:42:33.848Z,22.90
2018-08-06T22:45:01.994Z,22.80
2018-08-06T22:47:30.296Z,22.80
2018-08-06T22:49:58.472Z,22.80
2018-08-06T22:52:26.615Z,22.80
2018-08-06T22:57:22.893Z,22.70
2018-08-06T22:59:51.041Z,22.70
2018-08-06T23:04:47.128Z,22.60
2018-08-06T23:07:15.268Z,22.60
2018-08-06T23:09:43.416Z,22.50
2018-08-06T23:12:11.563Z,22.50
2018-08-06T23:14:39.730Z,22.40
2018-08-06T23:17:07.889Z,22.40
2018-08-06T23:19:36.059Z,22.40
2018-08-06T23:22:04.205Z,22.40
2018-08-06T23:27:00.381Z,22.40
2018-08-06T23:29:28.525Z,22.30
2018-08-06T23:34:24.596Z,22.30
2018-08-06T23:36:52.733Z,22.30
2018-08-06T23:41:48.800Z,22.10
2018-08-06T23:44:16.995Z,22.00
2018-08-06T23:46:45.137Z,22.00
2018-08-06T23:51:41.195Z,21.80
2018-08-06T23:54:09.557Z,21.70
2018-08-06T23:59:05.836Z,21.60
